createdAt,value
2022-11-06T00:00:42.887Z,100.00
2022-11-06T00:01:44.242Z,100.00
2022-11-06T00:02:45.974Z,100.00
2022-11-06T00:03:47.379Z,100.00
2022-11-06T00:04:48.674Z,100.00
2022-11-06T00:05:50.282Z,100.00
2022-11-06T00:06:51.567Z,100.00
2022-11-06T00:07:52.944Z,100.00
2022-11-06T00:08:54.635Z,100.00
2022-11-06T00:09:55.951Z,100.00
2022-11-06T00:10:57.665Z,100.00
2022-11-06T00:11:58.946Z,100.00
2022-11-06T00:13:00.272Z,100.00
2022-11-06T00:14:02.068Z,100.00
2022-11-06T00:15:03.486Z,100.00
2022-11-06T00:16:09.316Z,100.00
2022-11-06T00:17:10.635Z,100.00
2022-11-06T00:18:12.194Z,100.00
2022-11-06T00:19:14.132Z,100.00
2022-11-06T00:20:15.500Z,100.00
2022-11-06T00:21:19.298Z,100.00
2022-11-06T00:22:20.667Z,100.00
2022-11-06T00:23:21.989Z,100.00
2022-11-06T00:24:23.266Z,100.00
2022-11-06T00:25:24.603Z,100.00
2022-11-06T00:26:27.179Z,100.00
2022-11-06T00:27:28.784Z,100.00
2022-11-06T00:28:30.158Z,100.00
2022-11-06T00:29:31.452Z,100.00
2022-11-06T00:30:32.912Z,100.00
2022-11-06T00:31:36.002Z,100.00
2022-11-06T00:32:37.686Z,100.00
2022-11-06T00:33:39.208Z,100.00
2022-11-06T00:34:40.703Z,100.00
2022-11-06T00:35:42.035Z,100.00
2022-11-06T00:36:43.336Z,100.00
2022-11-06T00:37:44.626Z,100.00
2022-11-06T00:38:46.093Z,100.00
2022-11-06T00:39:47.378Z,100.00
2022-11-06T00:40:48.693Z,100.00
2022-11-06T00:41:50.008Z,100.00
2022-11-06T00:42:53.394Z,100.00
2022-11-06T00:43:59.170Z,100.00
2022-11-06T00:45:01.195Z,100.00
2022-11-06T00:46:03.443Z,100.00
2022-11-06T00:47:04.854Z,100.00
2022-11-06T00:48:06.275Z,100.00
2022-11-06T00:49:07.738Z,100.00
2022-11-06T00:50:09.197Z,100.00
2022-11-06T00:51:18.190Z,100.00
2022-11-06T00:52:19.478Z,100.00
2022-11-06T00:53:21.103Z,100.00
2022-11-06T00:54:22.541Z,100.00
2022-11-06T00:55:23.854Z,100.00
2022-11-06T00:56:25.583Z,100.00
2022-11-06T00:57:26.939Z,100.00
2022-11-06T00:58:28.232Z,100.00
2022-11-06T00:59:29.546Z,100.00
2022-11-06T01:00:30.928Z,100.00
2022-11-06T01:01:33.684Z,100.00
2022-11-06T01:02:35.139Z,100.00
2022-11-06T01:03:37.198Z,100.00
2022-11-06T01:04:38.491Z,100.00
2022-11-06T01:05:39.776Z,100.00
2022-11-06T01:06:42.406Z,100.00
2022-11-06T01:07:43.714Z,100.00
2022-11-06T01:08:45.611Z,100.00
2022-11-06T01:09:47.001Z,100.00
2022-11-06T01:10:48.278Z,100.00
2022-11-06T01:13:12.677Z,100.00
2022-11-06T01:14:15.079Z,100.00
2022-11-06T01:15:16.435Z,100.00
2022-11-06T01:16:18.112Z,100.00
2022-11-06T01:17:19.404Z,100.00
2022-11-06T01:18:20.707Z,100.00
2022-11-06T01:19:22.880Z,100.00
2022-11-06T01:20:24.186Z,100.00
2022-11-06T01:21:26.947Z,100.00
2022-11-06T01:22:28.256Z,100.00
2022-11-06T01:23:29.535Z,100.00
2022-11-06T01:24:31.046Z,100.00
2022-11-06T01:25:32.405Z,100.00
2022-11-06T01:26:38.535Z,100.00
2022-11-06T01:27:41.994Z,100.00
2022-11-06T01:28:43.303Z,100.00
2022-11-06T01:29:44.871Z,100.00
2022-11-06T01:30:46.360Z,100.00
2022-11-06T01:31:48.239Z,100.00
2022-11-06T01:32:49.541Z,100.00
2022-11-06T01:33:51.028Z,100.00
2022-11-06T01:34:52.435Z,100.00
2022-11-06T01:35:54.430Z,100.00
2022-11-06T01:36:55.733Z,100.00
2022-11-06T01:37:57.071Z,100.00
2022-11-06T01:39:00.622Z,100.00
2022-11-06T01:40:01.996Z,100.00
2022-11-06T01:41:03.328Z,100.00
2022-11-06T01:42:04.670Z,100.00
2022-11-06T01:43:11.159Z,100.00
2022-11-06T01:44:31.170Z,100.00
2022-11-06T01:45:38.482Z,100.00
2022-11-06T01:46:39.840Z,100.00
2022-11-06T01:47:41.164Z,100.00
2022-11-06T01:48:49.781Z,100.00
2022-11-06T01:49:53.050Z,100.00
2022-11-06T01:50:56.512Z,100.00
2022-11-06T01:52:00.395Z,100.00
2022-11-06T01:53:01.922Z,100.00
2022-11-06T01:54:04.786Z,100.00
2022-11-06T01:55:08.762Z,100.00
2022-11-06T01:56:12.141Z,100.00
2022-11-06T01:57:13.518Z,100.00
2022-11-06T01:58:16.480Z,100.00
2022-11-06T01:59:19.327Z,100.00
2022-11-06T02:00:20.732Z,100.00
2022-11-06T02:01:22.577Z,100.00
2022-11-06T02:02:24.295Z,100.00
2022-11-06T02:03:25.795Z,100.00
2022-11-06T02:04:31.802Z,100.00
2022-11-06T02:05:33.265Z,100.00
2022-11-06T02:06:34.824Z,100.00
2022-11-06T02:07:36.576Z,100.00
2022-11-06T02:08:37.914Z,100.00
2022-11-06T02:09:39.633Z,100.00
2022-11-06T02:10:41.615Z,100.00
2022-11-06T02:11:50.306Z,100.00
2022-11-06T02:12:58.561Z,100.00
2022-11-06T02:13:59.896Z,100.00
2022-11-06T02:15:12.706Z,100.00
2022-11-06T02:16:32.839Z,100.00
2022-11-06T02:17:36.777Z,100.00
2022-11-06T02:18:57.015Z,100.00
2022-11-06T02:19:58.484Z,100.00
2022-11-06T02:21:10.965Z,100.00
2022-11-06T02:22:20.970Z,100.00
2022-11-06T02:23:32.634Z,100.00
2022-11-06T02:24:47.321Z,100.00
2022-11-06T02:25:52.152Z,100.00
2022-11-06T02:27:08.357Z,100.00
2022-11-06T02:28:14.515Z,100.00
2022-11-06T02:29:45.496Z,100.00
2022-11-06T02:30:47.770Z,100.00
2022-11-06T02:31:51.407Z,100.00
2022-11-06T02:33:14.330Z,100.00
2022-11-06T02:34:17.501Z,100.00
2022-11-06T02:35:39.083Z,100.00
2022-11-06T02:36:43.400Z,100.00
2022-11-06T02:37:46.496Z,100.00
2022-11-06T02:38:50.210Z,100.00
2022-11-06T02:39:52.483Z,100.00
2022-11-06T02:40:55.810Z,100.00
2022-11-06T02:41:59.214Z,100.00
2022-11-06T02:43:03.446Z,100.00
2022-11-06T02:44:07.655Z,100.00
2022-11-06T02:45:11.086Z,100.00
2022-11-06T02:46:15.149Z,100.00
2022-11-06T02:47:18.599Z,100.00
2022-11-06T02:48:21.590Z,100.00
2022-11-06T02:49:22.838Z,100.00
2022-11-06T02:50:26.720Z,100.00
2022-11-06T02:51:30.303Z,100.00
2022-11-06T02:52:38.109Z,100.00
2022-11-06T02:53:41.688Z,100.00
2022-11-06T02:54:46.457Z,100.00
2022-11-06T02:55:49.994Z,100.00
2022-11-06T02:56:52.555Z,100.00
2022-11-06T02:57:57.058Z,100.00
2022-11-06T02:59:02.665Z,100.00
2022-11-06T03:00:06.293Z,100.00
2022-11-06T03:01:11.403Z,100.00
2022-11-06T03:02:18.218Z,100.00
2022-11-06T03:03:26.930Z,100.00
2022-11-06T03:04:38.938Z,100.00
2022-11-06T03:05:49.107Z,100.00
2022-11-06T03:06:59.894Z,100.00
2022-11-06T03:08:03.929Z,100.00
2022-11-06T03:09:25.503Z,100.00
2022-11-06T03:10:29.729Z,100.00
2022-11-06T03:11:32.696Z,100.00
2022-11-06T03:12:52.981Z,100.00
2022-11-06T03:13:58.261Z,100.00
2022-11-06T03:15:02.931Z,100.00
2022-11-06T03:16:27.418Z,100.00
2022-11-06T03:17:51.654Z,100.00
2022-11-06T03:19:14.004Z,100.00
2022-11-06T03:20:31.446Z,100.00
2022-11-06T03:21:52.085Z,100.00
2022-11-06T03:23:08.390Z,100.00
2022-11-06T03:24:15.111Z,100.00
2022-11-06T03:25:22.409Z,100.00
2022-11-06T03:26:47.436Z,100.00
2022-11-06T03:28:07.447Z,100.00
2022-11-06T03:29:17.522Z,100.00
2022-11-06T03:30:22.051Z,100.00
2022-11-06T03:31:46.396Z,100.00
2022-11-06T03:32:51.030Z,100.00
2022-11-06T03:33:54.466Z,100.00
2022-11-06T03:35:14.738Z,100.00
2022-11-06T03:36:18.823Z,100.00
2022-11-06T03:37:24.971Z,100.00
2022-11-06T03:38:52.531Z,100.00
2022-11-06T03:39:55.299Z,100.00
2022-11-06T03:41:01.851Z,100.00
2022-11-06T03:42:09.182Z,100.00
2022-11-06T03:43:12.327Z,100.00
2022-11-06T03:44:16.804Z,100.00
2022-11-06T03:45:23.871Z,100.00
2022-11-06T03:46:26.584Z,100.00
2022-11-06T03:47:36.630Z,100.00
2022-11-06T03:48:40.382Z,100.00
2022-11-06T03:49:45.918Z,100.00
2022-11-06T03:51:09.405Z,100.00
2022-11-06T03:52:16.462Z,100.00
2022-11-06T03:53:29.842Z,100.00
2022-11-06T03:54:35.662Z,100.00
2022-11-06T03:55:41.035Z,100.00
2022-11-06T03:56:57.382Z,100.00
2022-11-06T03:57:58.660Z,100.00
2022-11-06T03:59:02.508Z,100.00
2022-11-06T04:00:05.055Z,100.00
2022-11-06T04:01:14.425Z,100.00
2022-11-06T04:02:17.814Z,100.00
2022-11-06T04:03:28.765Z,100.00
2022-11-06T04:04:41.365Z,100.00
2022-11-06T04:05:46.153Z,100.00
2022-11-06T04:06:51.783Z,100.00
2022-11-06T04:07:55.595Z,100.00
2022-11-06T04:09:00.194Z,100.00
2022-11-06T04:10:03.329Z,100.00
2022-11-06T04:11:06.286Z,100.00
2022-11-06T04:12:08.430Z,100.00
2022-11-06T04:13:09.798Z,100.00
2022-11-06T04:14:13.339Z,100.00
2022-11-06T04:15:16.687Z,100.00
2022-11-06T04:16:18.245Z,100.00
2022-11-06T04:17:20.009Z,100.00
2022-11-06T04:18:21.302Z,100.00
2022-11-06T04:19:22.962Z,100.00
2022-11-06T04:20:28.035Z,100.00
2022-11-06T04:21:32.803Z,100.00
2022-11-06T04:22:37.110Z,100.00
2022-11-06T04:23:46.062Z,100.00
2022-11-06T04:25:04.428Z,100.00
2022-11-06T04:26:12.427Z,100.00
2022-11-06T04:27:28.258Z,100.00
2022-11-06T04:28:36.045Z,100.00
2022-11-06T04:29:56.244Z,100.00
2022-11-06T04:31:00.788Z,100.00
2022-11-06T04:32:16.250Z,100.00
2022-11-06T04:33:25.204Z,100.00
2022-11-06T04:34:35.626Z,100.00
2022-11-06T04:35:43.315Z,100.00
2022-11-06T04:36:50.340Z,100.00
2022-11-06T04:38:00.758Z,100.00
2022-11-06T04:39:11.998Z,100.00
2022-11-06T04:40:25.693Z,100.00
2022-11-06T04:41:30.673Z,100.00
2022-11-06T04:42:36.124Z,100.00
2022-11-06T04:43:43.907Z,100.00
2022-11-06T04:44:49.450Z,100.00
2022-11-06T04:45:52.580Z,100.00
2022-11-06T04:46:57.590Z,100.00
2022-11-06T04:47:59.725Z,100.00
2022-11-06T04:49:02.749Z,100.00
2022-11-06T04:50:05.865Z,100.00
2022-11-06T04:51:09.307Z,100.00
2022-11-06T04:52:15.832Z,100.00
2022-11-06T04:53:18.462Z,100.00
2022-11-06T04:54:20.076Z,100.00
2022-11-06T04:55:22.339Z,100.00
2022-11-06T04:56:29.169Z,100.00
2022-11-06T04:57:30.740Z,100.00
2022-11-06T04:58:32.026Z,100.00
2022-11-06T04:59:35.253Z,100.00
2022-11-06T05:00:37.602Z,100.00
2022-11-06T05:01:39.041Z,100.00
2022-11-06T05:02:40.611Z,100.00
2022-11-06T05:03:41.915Z,100.00
2022-11-06T05:04:43.284Z,100.00
2022-11-06T05:05:44.672Z,100.00
2022-11-06T05:06:45.957Z,100.00
2022-11-06T05:07:47.272Z,100.00
2022-11-06T05:08:48.676Z,100.00
2022-11-06T05:09:50.019Z,100.00
2022-11-06T05:10:51.337Z,100.00
2022-11-06T05:11:52.633Z,100.00
2022-11-06T05:12:53.905Z,100.00
2022-11-06T05:13:55.218Z,100.00
2022-11-06T05:14:56.559Z,100.00
2022-11-06T05:15:58.337Z,100.00
2022-11-06T05:16:59.958Z,100.00
2022-11-06T05:18:01.310Z,100.00
2022-11-06T05:19:03.116Z,100.00
2022-11-06T05:20:05.059Z,100.00
2022-11-06T05:21:06.351Z,100.00
2022-11-06T05:22:08.830Z,100.00
2022-11-06T05:23:10.150Z,100.00
2022-11-06T05:24:11.491Z,100.00
2022-11-06T05:25:12.806Z,100.00
2022-11-06T05:26:14.385Z,100.00
2022-11-06T05:27:15.691Z,100.00
2022-11-06T05:28:17.011Z,100.00
2022-11-06T05:29:18.315Z,100.00
2022-11-06T05:30:19.691Z,100.00
2022-11-06T05:31:21.053Z,100.00
2022-11-06T05:32:22.362Z,100.00
2022-11-06T05:33:23.756Z,100.00
2022-11-06T05:34:25.049Z,100.00
2022-11-06T05:35:26.415Z,100.00
2022-11-06T05:36:27.722Z,100.00
2022-11-06T05:37:29.002Z,100.00
2022-11-06T05:38:30.962Z,100.00
2022-11-06T05:39:32.261Z,100.00
2022-11-06T05:40:33.556Z,100.00
2022-11-06T05:41:34.901Z,100.00
2022-11-06T05:42:42.892Z,100.00
2022-11-06T05:43:44.273Z,100.00
2022-11-06T05:44:45.548Z,100.00
2022-11-06T05:45:46.830Z,100.00
2022-11-06T05:46:49.521Z,100.00
2022-11-06T05:47:51.087Z,100.00
2022-11-06T05:48:52.436Z,100.00
2022-11-06T05:49:53.738Z,100.00
2022-11-06T05:51:05.449Z,100.00
2022-11-06T05:52:06.774Z,100.00
2022-11-06T05:53:08.075Z,100.00
2022-11-06T05:54:09.419Z,100.00
2022-11-06T05:55:14.723Z,100.00
2022-11-06T05:56:16.915Z,100.00
2022-11-06T05:57:18.231Z,100.00
2022-11-06T05:58:19.519Z,100.00
2022-11-06T05:59:20.839Z,100.00
2022-11-06T06:00:22.146Z,100.00
2022-11-06T06:01:23.528Z,100.00
2022-11-06T06:02:25.044Z,100.00
2022-11-06T06:03:26.692Z,100.00
2022-11-06T06:04:27.998Z,100.00
2022-11-06T06:05:29.397Z,100.00
2022-11-06T06:06:30.751Z,100.00
2022-11-06T06:07:32.102Z,100.00
2022-11-06T06:08:33.433Z,100.00
2022-11-06T06:09:34.771Z,100.00
2022-11-06T06:10:40.062Z,100.00
2022-11-06T06:11:41.390Z,100.00
2022-11-06T06:12:42.675Z,100.00
2022-11-06T06:13:44.000Z,100.00
2022-11-06T06:14:49.373Z,100.00
2022-11-06T06:15:51.636Z,100.00
2022-11-06T06:16:52.958Z,100.00
2022-11-06T06:17:54.239Z,100.00
2022-11-06T06:18:55.545Z,100.00
2022-11-06T06:19:56.885Z,100.00
2022-11-06T06:20:58.420Z,100.00
2022-11-06T06:21:59.737Z,100.00
2022-11-06T06:23:01.176Z,100.00
2022-11-06T06:24:03.535Z,100.00
2022-11-06T06:25:08.865Z,100.00
2022-11-06T06:26:13.552Z,100.00
2022-11-06T06:27:14.867Z,100.00
2022-11-06T06:28:16.569Z,100.00
2022-11-06T06:29:18.018Z,100.00
2022-11-06T06:30:19.816Z,100.00
2022-11-06T06:31:21.309Z,100.00
2022-11-06T06:32:22.605Z,100.00
2022-11-06T06:33:24.063Z,100.00
2022-11-06T06:34:25.472Z,100.00
2022-11-06T06:35:26.759Z,100.00
2022-11-06T06:36:28.089Z,100.00
2022-11-06T06:37:29.450Z,100.00
2022-11-06T06:38:31.225Z,100.00
2022-11-06T06:39:32.523Z,100.00
2022-11-06T06:40:33.851Z,100.00
2022-11-06T06:41:35.134Z,100.00
2022-11-06T06:42:36.415Z,100.00
2022-11-06T06:43:37.792Z,100.00
2022-11-06T06:44:39.113Z,100.00
2022-11-06T06:45:40.451Z,100.00
2022-11-06T06:46:42.144Z,100.00
2022-11-06T06:47:43.471Z,100.00
2022-11-06T06:48:44.811Z,100.00
2022-11-06T06:49:46.150Z,100.00
2022-11-06T06:50:47.429Z,100.00
2022-11-06T06:51:49.423Z,100.00
2022-11-06T06:52:54.744Z,100.00
2022-11-06T06:53:56.027Z,100.00
2022-11-06T06:54:57.331Z,100.00
2022-11-06T06:55:59.353Z,100.00
2022-11-06T06:57:00.644Z,100.00
2022-11-06T06:58:02.105Z,100.00
2022-11-06T06:59:03.432Z,100.00
2022-11-06T07:00:04.983Z,100.00
2022-11-06T07:01:06.424Z,100.00
2022-11-06T07:02:08.978Z,100.00
2022-11-06T07:03:10.399Z,100.00
2022-11-06T07:04:11.731Z,100.00
2022-11-06T07:05:13.027Z,100.00
2022-11-06T07:06:14.426Z,100.00
2022-11-06T07:07:15.731Z,100.00
2022-11-06T07:08:17.124Z,100.00
2022-11-06T07:09:18.461Z,100.00
2022-11-06T07:10:19.770Z,100.00
2022-11-06T07:11:21.434Z,100.00
2022-11-06T07:12:22.781Z,100.00
2022-11-06T07:13:24.087Z,100.00
2022-11-06T07:14:25.399Z,100.00
2022-11-06T07:15:26.715Z,100.00
2022-11-06T07:16:28.059Z,100.00
2022-11-06T07:17:29.431Z,100.00
2022-11-06T07:18:30.745Z,100.00
2022-11-06T07:19:32.066Z,100.00
2022-11-06T07:20:34.330Z,100.00
2022-11-06T07:21:35.723Z,100.00
2022-11-06T07:22:37.834Z,100.00
2022-11-06T07:23:39.694Z,100.00
2022-11-06T07:24:41.059Z,100.00
2022-11-06T07:25:42.394Z,100.00
2022-11-06T07:26:43.736Z,100.00
2022-11-06T07:27:45.035Z,100.00
2022-11-06T07:28:46.403Z,100.00
2022-11-06T07:29:47.905Z,100.00
2022-11-06T07:30:49.331Z,100.00
2022-11-06T07:31:50.614Z,100.00
2022-11-06T07:32:52.007Z,100.00
2022-11-06T07:33:53.319Z,100.00
2022-11-06T07:34:54.618Z,100.00
2022-11-06T07:35:55.975Z,100.00
2022-11-06T07:36:57.263Z,100.00
2022-11-06T07:37:58.563Z,100.00
2022-11-06T07:38:59.865Z,100.00
2022-11-06T07:40:01.272Z,100.00
2022-11-06T07:41:06.700Z,100.00
2022-11-06T07:42:08.261Z,100.00
2022-11-06T07:43:11.650Z,100.00
2022-11-06T07:44:13.021Z,100.00
2022-11-06T07:45:14.365Z,100.00
2022-11-06T07:46:15.708Z,100.00
2022-11-06T07:47:16.990Z,100.00
2022-11-06T07:48:18.327Z,100.00
2022-11-06T07:49:19.651Z,100.00
2022-11-06T07:50:20.932Z,100.00
2022-11-06T07:51:22.330Z,100.00
2022-11-06T07:52:23.759Z,100.00
2022-11-06T07:53:25.137Z,100.00
2022-11-06T07:54:26.452Z,100.00
2022-11-06T07:55:27.794Z,100.00
2022-11-06T07:56:29.114Z,100.00
2022-11-06T07:57:30.415Z,100.00
2022-11-06T07:58:33.018Z,100.00
2022-11-06T07:59:34.539Z,100.00
2022-11-06T08:00:35.890Z,100.00
2022-11-06T08:01:37.409Z,100.00
2022-11-06T08:02:38.870Z,100.00
2022-11-06T08:03:40.310Z,100.00
2022-11-06T08:04:41.607Z,100.00
2022-11-06T08:05:42.998Z,100.00
2022-11-06T08:06:44.353Z,100.00
2022-11-06T08:07:45.683Z,100.00
2022-11-06T08:08:47.036Z,100.00
2022-11-06T08:09:48.313Z,100.00
2022-11-06T08:10:49.636Z,100.00
2022-11-06T08:11:51.079Z,100.00
2022-11-06T08:12:52.398Z,100.00
2022-11-06T08:13:53.705Z,100.00
2022-11-06T08:14:54.981Z,100.00
2022-11-06T08:15:56.404Z,100.00
2022-11-06T08:16:57.699Z,100.00
2022-11-06T08:17:59.367Z,100.00
2022-11-06T08:19:00.676Z,100.00
2022-11-06T08:20:02.071Z,100.00
2022-11-06T08:21:03.962Z,100.00
2022-11-06T08:22:05.464Z,100.00
2022-11-06T08:23:08.019Z,100.00
2022-11-06T08:24:09.398Z,100.00
2022-11-06T08:25:10.823Z,100.00
2022-11-06T08:26:14.561Z,100.00
2022-11-06T08:27:15.873Z,100.00
2022-11-06T08:28:17.171Z,100.00
2022-11-06T08:29:18.479Z,100.00
2022-11-06T08:30:19.802Z,100.00
2022-11-06T08:31:21.153Z,100.00
2022-11-06T08:32:22.493Z,100.00
2022-11-06T08:33:24.659Z,100.00
2022-11-06T08:34:26.198Z,100.00
2022-11-06T08:35:27.580Z,100.00
2022-11-06T08:36:28.899Z,100.00
2022-11-06T08:37:30.211Z,100.00
2022-11-06T08:38:31.575Z,100.00
2022-11-06T08:39:32.871Z,100.00
2022-11-06T08:40:36.292Z,100.00
2022-11-06T08:41:38.481Z,100.00
2022-11-06T08:42:39.768Z,100.00
2022-11-06T08:43:41.337Z,100.00
2022-11-06T08:44:42.612Z,100.00
2022-11-06T08:45:43.950Z,100.00
2022-11-06T08:46:49.370Z,100.00
2022-11-06T08:47:53.128Z,100.00
2022-11-06T08:48:54.445Z,100.00
2022-11-06T08:49:55.718Z,100.00
2022-11-06T08:50:57.028Z,100.00
2022-11-06T08:51:58.321Z,100.00
2022-11-06T08:53:00.224Z,100.00
2022-11-06T08:54:01.596Z,100.00
2022-11-06T08:55:03.051Z,100.00
2022-11-06T08:56:04.902Z,100.00
2022-11-06T08:57:06.207Z,100.00
2022-11-06T08:58:07.628Z,100.00
2022-11-06T08:59:08.941Z,100.00
2022-11-06T09:00:10.625Z,100.00
2022-11-06T09:01:11.971Z,100.00
2022-11-06T09:02:13.984Z,100.00
2022-11-06T09:03:16.922Z,100.00
2022-11-06T09:04:18.543Z,100.00
2022-11-06T09:05:19.855Z,100.00
2022-11-06T09:06:21.175Z,100.00
2022-11-06T09:07:22.477Z,100.00
2022-11-06T09:08:23.798Z,100.00
2022-11-06T09:09:25.184Z,100.00
2022-11-06T09:10:27.389Z,100.00
2022-11-06T09:11:28.907Z,100.00
2022-11-06T09:12:30.265Z,100.00
2022-11-06T09:13:31.565Z,100.00
2022-11-06T09:14:33.366Z,100.00
2022-11-06T09:15:34.770Z,100.00
2022-11-06T09:16:36.096Z,100.00
2022-11-06T09:17:44.297Z,100.00
2022-11-06T09:18:45.611Z,100.00
2022-11-06T09:19:46.925Z,100.00
2022-11-06T09:20:48.241Z,100.00
2022-11-06T09:21:54.530Z,100.00
2022-11-06T09:23:00.224Z,100.00
2022-11-06T09:24:01.554Z,100.00
2022-11-06T09:25:04.338Z,100.00
2022-11-06T09:26:05.993Z,100.00
2022-11-06T09:27:07.321Z,100.00
2022-11-06T09:28:08.643Z,100.00
2022-11-06T09:29:09.965Z,100.00
2022-11-06T09:30:12.324Z,100.00
2022-11-06T09:31:13.650Z,100.00
2022-11-06T09:32:14.993Z,100.00
2022-11-06T09:33:16.698Z,100.00
2022-11-06T09:34:18.266Z,100.00
2022-11-06T09:35:20.967Z,100.00
2022-11-06T09:36:22.440Z,100.00
2022-11-06T09:37:23.777Z,100.00
2022-11-06T09:38:25.129Z,100.00
2022-11-06T09:39:26.452Z,100.00
2022-11-06T09:40:33.870Z,100.00
2022-11-06T09:41:58.038Z,100.00
2022-11-06T09:43:43.108Z,100.00
2022-11-06T09:44:43.627Z,100.00
2022-11-06T09:45:48.006Z,100.00
2022-11-06T09:46:53.490Z,100.00
2022-11-06T09:47:59.216Z,100.00
2022-11-06T09:49:19.323Z,100.00
2022-11-06T09:50:23.850Z,100.00
2022-11-06T09:51:34.359Z,100.00
2022-11-06T09:52:39.073Z,100.00
2022-11-06T09:53:56.967Z,100.00
2022-11-06T09:55:18.855Z,100.00
2022-11-06T09:56:20.925Z,100.00
2022-11-06T09:57:29.252Z,100.00
2022-11-06T09:58:33.816Z,100.00
2022-11-06T09:59:36.973Z,100.00
2022-11-06T10:00:38.759Z,100.00
2022-11-06T10:01:43.562Z,100.00
2022-11-06T10:02:49.894Z,100.00
2022-11-06T10:03:54.802Z,100.00
2022-11-06T10:05:13.947Z,100.00
2022-11-06T10:06:15.368Z,99.41
2022-11-06T10:07:23.305Z,99.09
2022-11-06T10:08:26.331Z,98.52
2022-11-06T10:09:28.253Z,97.10
2022-11-06T10:10:45.273Z,97.43
2022-11-06T10:12:07.879Z,96.87
2022-11-06T10:13:28.087Z,97.00
2022-11-06T10:14:50.976Z,96.51
2022-11-06T10:16:00.692Z,96.61
2022-11-06T10:17:20.782Z,96.68
2022-11-06T10:18:22.158Z,96.48
2022-11-06T10:19:32.373Z,95.78
2022-11-06T10:20:53.930Z,94.85
2022-11-06T10:22:01.382Z,94.42
2022-11-06T10:23:02.682Z,94.46
2022-11-06T10:24:11.447Z,94.82
2022-11-06T10:25:19.688Z,93.86
2022-11-06T10:26:28.650Z,93.70
2022-11-06T10:27:39.450Z,93.61
2022-11-06T10:28:40.721Z,92.41
2022-11-06T10:29:41.996Z,92.57
2022-11-06T10:30:49.319Z,93.11
2022-11-06T10:32:09.325Z,92.22
2022-11-06T10:33:29.539Z,91.87
2022-11-06T10:34:43.560Z,93.00
2022-11-06T10:35:54.584Z,92.69
2022-11-06T10:37:00.690Z,93.90
2022-11-06T10:38:37.544Z,93.89
2022-11-06T10:39:39.554Z,93.13
2022-11-06T10:40:43.490Z,93.64
2022-11-06T10:41:49.135Z,94.41
2022-11-06T10:43:22.873Z,93.62
2022-11-06T10:44:28.982Z,94.30
2022-11-06T10:45:30.320Z,92.16
2022-11-06T10:46:43.519Z,91.05
2022-11-06T10:47:50.946Z,91.51
2022-11-06T10:49:02.834Z,92.48
2022-11-06T10:50:05.820Z,92.80
2022-11-06T10:51:07.162Z,91.52
2022-11-06T10:52:08.504Z,91.06
2022-11-06T10:53:24.599Z,91.21
2022-11-06T10:54:41.126Z,91.61
2022-11-06T10:55:58.767Z,90.99
2022-11-06T10:57:05.944Z,89.28
2022-11-06T10:58:07.323Z,89.11
2022-11-06T10:59:08.781Z,89.90
2022-11-06T11:00:13.683Z,88.83
2022-11-06T11:01:15.191Z,89.37
2022-11-06T11:02:36.838Z,89.59
2022-11-06T11:03:42.590Z,89.23
2022-11-06T11:04:43.909Z,90.32
2022-11-06T11:05:45.365Z,89.06
2022-11-06T11:06:46.692Z,89.66
2022-11-06T11:07:49.088Z,89.80
2022-11-06T11:08:51.331Z,89.43
2022-11-06T11:09:52.664Z,88.12
2022-11-06T11:11:04.779Z,88.41
2022-11-06T11:12:19.078Z,88.25
2022-11-06T11:13:20.589Z,88.66
2022-11-06T11:14:23.688Z,88.47
2022-11-06T11:15:26.395Z,88.35
2022-11-06T11:16:33.618Z,87.65
2022-11-06T11:17:34.964Z,86.93
2022-11-06T11:18:36.316Z,87.00
2022-11-06T11:19:39.030Z,87.64
2022-11-06T11:20:41.551Z,87.65
2022-11-06T11:22:18.540Z,87.32
2022-11-06T11:23:21.482Z,87.62
2022-11-06T11:24:22.874Z,87.38
2022-11-06T11:25:24.939Z,87.54
2022-11-06T11:26:29.847Z,87.11
2022-11-06T11:27:38.158Z,87.21
2022-11-06T11:28:40.375Z,87.84
2022-11-06T11:29:44.060Z,87.22
2022-11-06T11:30:50.583Z,87.64
2022-11-06T11:31:59.695Z,87.09
2022-11-06T11:33:01.027Z,86.66
2022-11-06T11:34:07.187Z,87.53
2022-11-06T11:35:10.360Z,87.73
2022-11-06T11:36:11.660Z,87.62
2022-11-06T11:37:33.235Z,87.85
2022-11-06T11:38:39.193Z,87.17
2022-11-06T11:39:43.454Z,87.54
2022-11-06T11:40:44.804Z,85.90
2022-11-06T11:41:46.254Z,87.88
2022-11-06T11:42:47.699Z,86.94
2022-11-06T11:44:05.940Z,87.60
2022-11-06T11:45:10.253Z,87.20
2022-11-06T11:46:11.818Z,87.25
2022-11-06T11:47:23.363Z,88.10
2022-11-06T11:48:24.741Z,86.79
2022-11-06T11:49:26.097Z,86.29
2022-11-06T11:50:27.588Z,86.34
2022-11-06T11:51:43.432Z,86.31
2022-11-06T11:52:45.995Z,84.71
2022-11-06T11:53:47.368Z,84.75
2022-11-06T11:54:51.333Z,85.52
2022-11-06T11:55:52.663Z,84.56
2022-11-06T11:57:07.343Z,84.22
2022-11-06T11:58:20.314Z,85.27
2022-11-06T11:59:26.553Z,85.65
2022-11-06T12:00:28.680Z,85.63
2022-11-06T12:01:38.311Z,86.13
2022-11-06T12:02:47.828Z,85.37
2022-11-06T12:03:50.138Z,86.19
2022-11-06T12:04:53.654Z,85.86
2022-11-06T12:06:03.942Z,85.82
2022-11-06T12:07:06.994Z,85.94
2022-11-06T12:08:14.236Z,86.28
2022-11-06T12:09:15.731Z,86.04
2022-11-06T12:10:23.248Z,86.93
2022-11-06T12:11:26.030Z,86.18
2022-11-06T12:12:32.341Z,86.44
2022-11-06T12:13:33.722Z,86.47
2022-11-06T12:14:36.704Z,86.18
2022-11-06T12:15:46.057Z,86.64
2022-11-06T12:16:51.782Z,85.12
2022-11-06T12:17:55.038Z,85.29
2022-11-06T12:18:59.041Z,86.21
2022-11-06T12:20:03.284Z,86.89
2022-11-06T12:21:12.282Z,86.89
2022-11-06T12:22:17.207Z,86.77
2022-11-06T12:23:37.341Z,86.74
2022-11-06T12:24:47.372Z,86.53
2022-11-06T12:25:56.486Z,86.24
2022-11-06T12:27:00.728Z,87.23
2022-11-06T12:28:02.939Z,87.73
2022-11-06T12:29:11.345Z,87.03
2022-11-06T12:30:14.992Z,86.89
2022-11-06T12:31:37.222Z,86.32
2022-11-06T12:32:43.665Z,84.93
2022-11-06T12:34:05.825Z,85.23
2022-11-06T12:35:17.007Z,85.11
2022-11-06T12:36:19.021Z,84.61
2022-11-06T12:37:29.531Z,85.22
2022-11-06T12:38:36.731Z,85.03
2022-11-06T12:39:39.061Z,83.36
2022-11-06T12:40:42.051Z,83.52
2022-11-06T12:41:46.183Z,81.54
2022-11-06T12:42:53.727Z,81.94
2022-11-06T12:43:55.570Z,82.31
2022-11-06T12:44:57.015Z,82.62
2022-11-06T12:46:13.817Z,80.59
2022-11-06T12:47:20.530Z,79.63
2022-11-06T12:48:44.713Z,80.64
2022-11-06T12:49:46.049Z,80.66
2022-11-06T12:50:57.216Z,81.17
2022-11-06T12:52:17.493Z,81.85
2022-11-06T12:53:18.826Z,80.22
2022-11-06T12:54:20.337Z,81.04
2022-11-06T12:55:29.070Z,81.73
2022-11-06T12:56:40.284Z,81.36
2022-11-06T12:57:47.544Z,80.35
2022-11-06T12:59:20.870Z,80.74
2022-11-06T13:00:26.066Z,82.42
2022-11-06T13:01:31.664Z,82.74
2022-11-06T13:02:47.922Z,83.28
2022-11-06T13:03:59.746Z,82.99
2022-11-06T13:05:19.814Z,83.40
2022-11-06T13:06:47.524Z,82.82
2022-11-06T13:08:02.202Z,83.63
2022-11-06T13:09:16.016Z,83.25
2022-11-06T13:10:32.402Z,83.25
2022-11-06T13:11:33.683Z,82.97
2022-11-06T13:12:34.978Z,81.76
2022-11-06T13:13:39.325Z,81.66
2022-11-06T13:14:47.342Z,81.44
2022-11-06T13:15:48.662Z,80.07
2022-11-06T13:16:49.926Z,80.69
2022-11-06T13:18:09.882Z,80.72
2022-11-06T13:19:17.189Z,80.98
2022-11-06T13:20:18.501Z,78.75
2022-11-06T13:21:36.410Z,78.77
2022-11-06T13:23:00.410Z,80.51
2022-11-06T13:24:10.402Z,80.14
2022-11-06T13:25:22.270Z,78.84
2022-11-06T13:26:43.818Z,78.73
2022-11-06T13:27:45.102Z,78.17
2022-11-06T13:28:54.982Z,79.24
2022-11-06T13:30:00.519Z,79.00
2022-11-06T13:31:03.327Z,80.23
2022-11-06T13:32:10.186Z,80.02
2022-11-06T13:33:22.937Z,79.96
2022-11-06T13:34:34.485Z,79.94
2022-11-06T13:35:37.691Z,78.66
2022-11-06T13:36:39.138Z,78.79
2022-11-06T13:37:42.623Z,78.73